Time;durP1;ratioP1;P1;durP2;ratioP2;P2;SDS_P1;SDS_P2;PMS_P1;PMS_P2;Temp;Humidity;BMP_temperature;BMP_pressure;BME280_temperature;BME280_humidity;BME280_pressure;Samples;Min_cycle;Max_cycle;Signal;HPM_P1;HPM_P2
2021/08/24 00:01:35;;;;;;;;;11.25;8.00;;;;;;;;5080724;28;47802;-78
2021/08/24 00:04:00;;;;;;;;;11.75;9.00;;;;;;;;5080697;28;47029;-78
2021/08/24 00:06:25;;;;;;;;;8.50;8.50;;;;;;;;5080774;28;46861;-78
2021/08/24 00:08:51;;;;;;;;;10.50;9.75;;;;;;;;5080637;28;46832;-77
2021/08/24 00:11:16;;;;;;;;;8.75;8.75;;;;;;;;5080354;28;46864;-79
2021/08/24 00:13:41;;;;;;;;;11.75;9.75;;;;;;;;5062179;28;47839;-78
2021/08/24 00:16:07;;;;;;;;;13.75;10.50;;;;;;;;5080392;28;47094;-78
2021/08/24 00:18:32;;;;;;;;;14.25;10.25;;;;;;;;5080811;28;47321;-78
2021/08/24 00:20:59;;;;;;;;;11.00;11.00;;;;;;;;5080139;28;48442;-78
2021/08/24 00:23:26;;;;;;;;;13.75;12.00;;;;;;;;5080187;28;46893;-78
2021/08/24 00:25:52;;;;;;;;;12.75;11.00;;;;;;;;5074331;28;46878;-78
2021/08/24 00:28:18;;;;;;;;;11.00;11.00;;;;;;;;5073566;28;46974;-78
2021/08/24 00:30:43;;;;;;;;;10.75;10.75;;;;;;;;5080232;28;47052;-78
2021/08/24 00:33:09;;;;;;;;;17.25;12.75;;;;;;;;5080314;28;47020;-79
2021/08/24 00:35:35;;;;;;;;;13.50;12.25;;;;;;;;5080180;28;47016;-79
2021/08/24 00:38:00;;;;;;;;;14.75;13.75;;;;;;;;5080184;28;46840;-79
2021/08/24 00:40:25;;;;;;;;;12.75;12.50;;;;;;;;5079926;28;47855;-79
2021/08/24 00:42:51;;;;;;;;;11.25;11.00;;;;;;;;5080148;28;46871;-78
2021/08/24 00:45:16;;;;;;;;;13.00;11.75;;;;;;;;5080020;28;47086;-78
2021/08/24 00:47:43;;;;;;;;;16.00;15.75;;;;;;;;5080457;28;46837;-78
2021/08/24 00:50:15;;;;;;;;;14.50;13.00;;;;;;;;5079754;28;46890;-78
2021/08/24 00:52:40;;;;;;;;;16.25;16.00;;;;;;;;5080009;28;47143;-79
2021/08/24 00:55:06;;;;;;;;;18.25;14.00;;;;;;;;5079985;28;46852;-78
2021/08/24 00:57:31;;;;;;;;;17.00;13.50;;;;;;;;5080035;28;47273;-76
2021/08/24 00:59:57;;;;;;;;;15.50;14.00;;;;;;;;5061415;28;47030;-77
2021/08/24 01:02:25;;;;;;;;;14.75;13.50;;;;;;;;5079679;28;46848;-78
2021/08/24 01:04:51;;;;;;;;;18.75;17.50;;;;;;;;5080077;28;46979;-78
2021/08/24 01:07:31;;;;;;;;;19.75;15.00;;;;;;;;5079682;28;46962;-78
2021/08/24 01:10:01;;;;;;;;;20.00;16.25;;;;;;;;5079710;28;48132;-78
2021/08/24 01:12:32;;;;;;;;;16.50;13.75;;;;;;;;5079544;28;46911;-78
2021/08/24 01:15:04;;;;;;;;;19.25;17.00;;;;;;;;5079570;28;46963;-78
2021/08/24 01:17:37;;;;;;;;;13.75;13.00;;;;;;;;5061457;28;46888;-78
2021/08/24 01:20:11;;;;;;;;;16.25;13.75;;;;;;;;5079582;28;47918;-78
2021/08/24 01:22:43;;;;;;;;;17.25;15.00;;;;;;;;5078875;28;47012;-78
2021/08/24 01:25:12;;;;;;;;;17.00;13.75;;;;;;;;5079586;28;46838;-78
2021/08/24 01:27:54;;;;;;;;;16.75;14.00;;;;;;;;5066676;28;47109;-78
2021/08/24 01:30:40;;;;;;;;;17.25;15.75;;;;;;;;5079194;28;47952;-78
2021/08/24 01:33:08;;;;;;;;;19.00;17.75;;;;;;;;5061078;28;47082;-78
2021/08/24 01:35:54;;;;;;;;;15.50;14.00;;;;;;;;5079295;28;47063;-78
2021/08/24 01:38:27;;;;;;;;;16.00;15.00;;;;;;;;5078206;28;46995;-78
2021/08/24 01:40:59;;;;;;;;;16.75;12.50;;;;;;;;5060892;28;48637;-78
2021/08/24 01:43:31;;;;;;;;;17.00;15.00;;;;;;;;5078996;28;46855;-78
2021/08/24 01:46:02;;;;;;;;;18.25;15.50;;;;;;;;5079238;28;46903;-78
2021/08/24 01:48:32;;;;;;;;;15.75;15.50;;;;;;;;5060942;28;47019;-78
2021/08/24 01:51:09;;;;;;;;;16.00;15.00;;;;;;;;5079008;28;46983;-78
2021/08/24 01:53:56;;;;;;;;;19.50;16.25;;;;;;;;5078842;28;47183;-78
2021/08/24 01:56:23;;;;;;;;;16.50;15.75;;;;;;;;5078692;28;47033;-78
2021/08/24 01:58:49;;;;;;;;;19.50;15.75;;;;;;;;5079133;28;46960;-78
2021/08/24 02:01:17;;;;;;;;;17.25;15.25;;;;;;;;5060384;28;48428;-78
2021/08/24 02:03:48;;;;;;;;;18.50;14.50;;;;;;;;5078918;28;46819;-78
2021/08/24 02:06:17;;;;;;;;;20.75;17.75;;;;;;;;5078689;28;46992;-79
2021/08/24 02:08:46;;;;;;;;;21.50;16.50;;;;;;;;5078731;28;47132;-78
2021/08/24 02:11:12;;;;;;;;;15.00;14.00;;;;;;;;5078602;28;47800;-77
2021/08/24 02:13:41;;;;;;;;;14.00;12.25;;;;;;;;5078581;28;47112;-78
2021/08/24 02:16:09;;;;;;;;;19.00;15.00;;;;;;;;5078515;28;47314;-78
2021/08/24 02:18:36;;;;;;;;;17.50;13.00;;;;;;;;5078883;28;47054;-78
2021/08/24 02:21:06;;;;;;;;;22.25;20.25;;;;;;;;5078376;28;47008;-78
2021/08/24 02:23:32;;;;;;;;;13.00;13.00;;;;;;;;5078177;28;47189;-78
2021/08/24 02:26:00;;;;;;;;;17.50;15.50;;;;;;;;5072252;28;46851;-78
2021/08/24 02:28:31;;;;;;;;;17.50;17.00;;;;;;;;5072620;28;47026;-78
2021/08/24 02:31:02;;;;;;;;;20.25;17.00;;;;;;;;5078435;28;46875;-78
2021/08/24 02:33:32;;;;;;;;;15.25;13.25;;;;;;;;5078364;28;47271;-78
2021/08/24 02:36:01;;;;;;;;;19.00;16.50;;;;;;;;5078695;28;47002;-78
2021/08/24 02:38:28;;;;;;;;;20.50;19.00;;;;;;;;5078267;28;46990;-78
2021/08/24 02:40:56;;;;;;;;;17.25;17.25;;;;;;;;5078425;28;47869;-78
2021/08/24 02:43:39;;;;;;;;;19.50;15.50;;;;;;;;5078107;28;46919;-78
2021/08/24 02:46:08;;;;;;;;;18.50;18.00;;;;;;;;5078465;28;46896;-78
2021/08/24 02:48:35;;;;;;;;;20.50;17.75;;;;;;;;5078787;28;47087;-78
2021/08/24 02:51:01;;;;;;;;;18.50;15.50;;;;;;;;5081448;28;47115;-77
2021/08/24 02:53:26;;;;;;;;;21.00;18.75;;;;;;;;5081807;28;46885;-77
2021/08/24 02:55:52;;;;;;;;;18.25;15.75;;;;;;;;5081856;28;46875;-78
2021/08/24 02:58:17;;;;;;;;;24.00;22.00;;;;;;;;5063415;28;47130;-77
2021/08/24 03:00:43;;;;;;;;;20.50;19.25;;;;;;;;5081755;28;47009;-77
2021/08/24 03:03:08;;;;;;;;;23.75;21.50;;;;;;;;5081465;28;46803;-78
2021/08/24 03:05:34;;;;;;;;;24.25;19.50;;;;;;;;5081867;28;46899;-78
2021/08/24 03:08:00;;;;;;;;;25.75;20.00;;;;;;;;5081474;28;46990;-77
2021/08/24 03:10:26;;;;;;;;;25.50;20.25;;;;;;;;5081521;28;46829;-78
2021/08/24 03:13:14;;;;;;;;;23.75;21.25;;;;;;;;5081480;28;46746;-78
2021/08/24 03:15:49;;;;;;;;;27.75;27.00;;;;;;;;5081290;27;47366;-78
2021/08/24 03:18:41;;;;;;;;;32.50;28.50;;;;;;;;5081637;28;47088;-78
2021/08/24 03:21:09;;;;;;;;;28.00;25.50;;;;;;;;5077238;28;46898;-78
2021/08/24 03:23:37;;;;;;;;;29.75;27.00;;;;;;;;5081106;28;46973;-78
2021/08/24 03:26:02;;;;;;;;;31.75;27.25;;;;;;;;5074340;28;47153;-78
2021/08/24 03:28:28;;;;;;;;;34.75;28.00;;;;;;;;5057593;28;47012;-78
2021/08/24 03:30:53;;;;;;;;;32.25;28.00;;;;;;;;5081161;28;47788;-78
2021/08/24 03:33:19;;;;;;;;;31.00;31.00;;;;;;;;5081029;28;46930;-78
2021/08/24 03:35:44;;;;;;;;;33.00;26.50;;;;;;;;5081296;28;46901;-77
2021/08/24 03:38:10;;;;;;;;;33.25;29.25;;;;;;;;5080986;28;46774;-77
2021/08/24 03:40:36;;;;;;;;;33.75;30.00;;;;;;;;5062836;28;49258;-78
2021/08/24 03:43:02;;;;;;;;;29.50;26.75;;;;;;;;5062583;28;47699;-77
2021/08/24 03:45:28;;;;;;;;;34.75;32.00;;;;;;;;5081139;28;46928;-77
2021/08/24 03:47:53;;;;;;;;;33.75;29.50;;;;;;;;5081218;28;46774;-77
2021/08/24 03:50:19;;;;;;;;;33.00;31.00;;;;;;;;5062548;28;49521;-78
2021/08/24 03:52:44;;;;;;;;;39.75;31.75;;;;;;;;5080513;28;46957;-78
2021/08/24 03:55:10;;;;;;;;;32.75;29.00;;;;;;;;5081106;28;47944;-78
2021/08/24 03:57:35;;;;;;;;;33.00;29.50;;;;;;;;5080873;28;47042;-78
2021/08/24 04:00:03;;;;;;;;;36.25;32.25;;;;;;;;5080927;28;46928;-77
2021/08/24 04:02:28;;;;;;;;;38.50;33.25;;;;;;;;5061714;28;47382;-77
2021/08/24 04:04:54;;;;;;;;;33.25;31.00;;;;;;;;5080939;28;46926;-77
2021/08/24 04:07:19;;;;;;;;;27.00;24.50;;;;;;;;5062343;28;46950;-77
2021/08/24 04:09:44;;;;;;;;;0.00;0.00;;;;;;;;5062362;28;47285;-77
2021/08/24 04:12:10;;;;;;;;;36.50;32.50;;;;;;;;5080525;28;46963;-77
2021/08/24 04:14:35;;;;;;;;;33.50;28.50;;;;;;;;5080449;28;46767;-77
2021/08/24 04:17:01;;;;;;;;;38.25;32.50;;;;;;;;5062603;28;47305;-77
2021/08/24 04:19:26;;;;;;;;;45.00;34.25;;;;;;;;5080181;28;46911;-77
2021/08/24 04:21:51;;;;;;;;;40.25;33.00;;;;;;;;5080021;28;46853;-77
2021/08/24 04:24:17;;;;;;;;;42.00;33.00;;;;;;;;5080215;28;47104;-77
2021/08/24 04:26:42;;;;;;;;;41.00;33.75;;;;;;;;5067882;28;47323;-78
2021/08/24 04:29:07;;;;;;;;;36.00;32.50;;;;;;;;5060997;28;48434;-78
2021/08/24 04:31:35;;;;;;;;;41.25;34.75;;;;;;;;5080221;28;46877;-78
2021/08/24 04:34:00;;;;;;;;;39.75;33.00;;;;;;;;5080137;28;47098;-78
2021/08/24 04:36:26;;;;;;;;;42.00;33.25;;;;;;;;5080330;28;46950;-78
2021/08/24 04:38:51;;;;;;;;;40.50;34.50;;;;;;;;5079930;28;46923;-78
2021/08/24 04:41:16;;;;;;;;;45.00;35.50;;;;;;;;5080126;28;47013;-78
2021/08/24 04:43:41;;;;;;;;;37.75;33.00;;;;;;;;5079896;28;47034;-78
2021/08/24 04:46:07;;;;;;;;;37.75;33.75;;;;;;;;5080373;28;46876;-78
2021/08/24 04:48:32;;;;;;;;;35.25;31.00;;;;;;;;5079872;28;46988;-78
2021/08/24 04:50:58;;;;;;;;;36.75;33.00;;;;;;;;5080023;28;47013;-77
2021/08/24 04:53:24;;;;;;;;;39.25;33.00;;;;;;;;5079701;28;47033;-77
2021/08/24 04:55:50;;;;;;;;;35.25;29.75;;;;;;;;5080219;28;46986;-77
2021/08/24 04:58:15;;;;;;;;;34.75;30.00;;;;;;;;5079600;28;47015;-77
2021/08/24 05:00:41;;;;;;;;;39.75;32.50;;;;;;;;5079941;28;46802;-77
2021/08/24 05:03:06;;;;;;;;;39.75;32.25;;;;;;;;5079704;28;47140;-78
2021/08/24 05:05:31;;;;;;;;;41.50;34.00;;;;;;;;5080207;28;47012;-78
2021/08/24 05:07:57;;;;;;;;;34.25;31.00;;;;;;;;5079295;28;46971;-78
2021/08/24 05:10:22;;;;;;;;;37.50;31.00;;;;;;;;5079850;28;46947;-77
2021/08/24 05:12:48;;;;;;;;;37.25;31.25;;;;;;;;5079284;28;47089;-77
2021/08/24 05:15:13;;;;;;;;;39.50;33.75;;;;;;;;5079663;28;47162;-77
2021/08/24 05:17:39;;;;;;;;;39.25;33.50;;;;;;;;5079237;28;47728;-77
2021/08/24 05:20:04;;;;;;;;;42.25;33.75;;;;;;;;5079579;28;46979;-78
2021/08/24 05:22:30;;;;;;;;;39.00;32.75;;;;;;;;5078931;28;46977;-77
2021/08/24 05:24:55;;;;;;;;;35.75;31.00;;;;;;;;5079691;28;46967;-77
2021/08/24 05:27:21;;;;;;;;;37.25;32.75;;;;;;;;5066319;28;47157;-77
2021/08/24 05:29:47;;;;;;;;;33.25;30.25;;;;;;;;5079377;28;47189;-77
2021/08/24 05:32:12;;;;;;;;;37.75;31.00;;;;;;;;5079241;28;46904;-78
2021/08/24 05:34:38;;;;;;;;;39.25;34.25;;;;;;;;5079412;28;47077;-78
2021/08/24 05:37:03;;;;;;;;;33.25;31.00;;;;;;;;5078861;28;47101;-78
2021/08/24 05:39:28;;;;;;;;;38.75;31.75;;;;;;;;5079340;28;47004;-77
2021/08/24 05:41:54;;;;;;;;;34.75;31.25;;;;;;;;5079219;28;46903;-77
2021/08/24 05:44:19;;;;;;;;;34.75;31.00;;;;;;;;5061023;28;47047;-78
2021/08/24 05:46:45;;;;;;;;;39.25;31.00;;;;;;;;5078952;28;48132;-78
2021/08/24 05:49:10;;;;;;;;;37.00;32.25;;;;;;;;5078998;28;46917;-78
2021/08/24 05:51:36;;;;;;;;;38.00;33.75;;;;;;;;5078683;28;46881;-77
2021/08/24 05:54:01;;;;;;;;;36.25;32.50;;;;;;;;5079292;28;46739;-77
2021/08/24 05:56:28;;;;;;;;;37.75;31.75;;;;;;;;5078836;28;46983;-77
2021/08/24 05:58:53;;;;;;;;;38.00;34.00;;;;;;;;5078980;28;47185;-77
2021/08/24 06:01:20;;;;;;;;;36.25;31.75;;;;;;;;5060698;28;46869;-77
2021/08/24 06:03:45;;;;;;;;;36.50;33.25;;;;;;;;5079206;28;47014;-77
2021/08/24 06:06:18;;;;;;;;;35.75;31.75;;;;;;;;5078749;28;47018;-77
2021/08/24 06:08:43;;;;;;;;;39.00;31.00;;;;;;;;5078709;28;47179;-77
2021/08/24 06:11:14;;;;;;;;;38.50;31.75;;;;;;;;5078746;28;46821;-78
2021/08/24 06:13:40;;;;;;;;;36.00;31.25;;;;;;;;5079027;28;47059;-77
2021/08/24 06:16:05;;;;;;;;;34.50;31.00;;;;;;;;5078410;28;47092;-77
2021/08/24 06:18:33;;;;;;;;;32.50;31.00;;;;;;;;5078716;28;47070;-77
2021/08/24 06:21:00;;;;;;;;;32.50;29.75;;;;;;;;5078565;28;46881;-78
2021/08/24 06:23:25;;;;;;;;;37.75;31.50;;;;;;;;5078543;28;46917;-77
2021/08/24 06:25:50;;;;;;;;;38.25;31.50;;;;;;;;5072475;28;46894;-77
2021/08/24 06:28:16;;;;;;;;;33.25;29.25;;;;;;;;5073793;28;46960;-76
2021/08/24 06:30:41;;;;;;;;;34.25;30.25;;;;;;;;5059739;28;47051;-76
2021/08/24 06:33:06;;;;;;;;;30.75;27.50;;;;;;;;5078534;28;47377;-77
2021/08/24 06:35:32;;;;;;;;;39.50;32.75;;;;;;;;5078430;28;46981;-77
2021/08/24 06:37:57;;;;;;;;;32.75;30.00;;;;;;;;5078156;28;47044;-77
2021/08/24 06:40:22;;;;;;;;;34.75;30.75;;;;;;;;5060174;28;46961;-77
2021/08/24 06:42:49;;;;;;;;;35.25;31.50;;;;;;;;5078530;28;47074;-77
2021/08/24 06:45:16;;;;;;;;;33.00;29.25;;;;;;;;5078227;28;47005;-77
2021/08/24 06:47:42;;;;;;;;;35.25;29.50;;;;;;;;5059939;28;47584;-77
2021/08/24 06:50:07;;;;;;;;;29.50;28.25;;;;;;;;5078230;28;46763;-77
2021/08/24 06:52:32;;;;;;;;;29.25;29.25;;;;;;;;5078166;28;47288;-77
2021/08/24 06:54:58;;;;;;;;;29.00;24.25;;;;;;;;5078137;28;46791;-77
2021/08/24 06:57:23;;;;;;;;;36.25;30.50;;;;;;;;5078008;28;46966;-77
2021/08/24 06:59:48;;;;;;;;;30.25;28.25;;;;;;;;5078137;28;46847;-77
2021/08/24 07:02:14;;;;;;;;;36.50;28.25;;;;;;;;5078514;28;46942;-77
2021/08/24 07:04:39;;;;;;;;;28.25;26.25;;;;;;;;5059623;28;48192;-77
2021/08/24 07:07:04;;;;;;;;;31.25;26.75;;;;;;;;5077939;28;46765;-77
2021/08/24 07:09:30;;;;;;;;;31.75;29.25;;;;;;;;5078000;28;47882;-77
2021/08/24 07:11:55;;;;;;;;;30.25;30.00;;;;;;;;5078160;28;46940;-77
2021/08/24 07:14:20;;;;;;;;;34.25;30.25;;;;;;;;5077613;28;47718;-77
2021/08/24 07:16:46;;;;;;;;;32.00;26.50;;;;;;;;5077757;28;46974;-78
2021/08/24 07:19:11;;;;;;;;;27.25;24.25;;;;;;;;5077949;28;46867;-77
2021/08/24 07:21:37;;;;;;;;;31.75;27.25;;;;;;;;5077836;28;47120;-77
2021/08/24 07:24:02;;;;;;;;;31.75;28.75;;;;;;;;5059540;28;48332;-77
2021/08/24 07:26:28;;;;;;;;;31.00;29.50;;;;;;;;5067195;28;46970;-77
2021/08/24 07:28:53;;;;;;;;;29.75;28.00;;;;;;;;5057110;28;47002;-77
2021/08/24 07:31:18;;;;;;;;;27.00;26.25;;;;;;;;5059801;28;47018;-77
2021/08/24 07:33:44;;;;;;;;;28.00;24.25;;;;;;;;5077461;28;46916;-77
2021/08/24 07:36:10;;;;;;;;;23.25;21.50;;;;;;;;5059930;28;47355;-77
2021/08/24 07:38:35;;;;;;;;;28.00;25.50;;;;;;;;5080840;28;46970;-77
2021/08/24 07:41:00;;;;;;;;;26.00;23.00;;;;;;;;5081535;28;46829;-78
2021/08/24 07:43:26;;;;;;;;;32.75;24.00;;;;;;;;5080850;28;48098;-77
2021/08/24 07:45:51;;;;;;;;;25.75;22.75;;;;;;;;5081134;28;46959;-78
2021/08/24 07:48:16;;;;;;;;;27.50;26.00;;;;;;;;5080950;28;47089;-78
2021/08/24 07:50:42;;;;;;;;;28.25;25.50;;;;;;;;5081317;28;46801;-78
2021/08/24 07:53:07;;;;;;;;;25.00;22.00;;;;;;;;5080627;28;46890;-78
2021/08/24 07:55:35;;;;;;;;;27.50;24.25;;;;;;;;5080986;28;46868;-78
2021/08/24 07:58:00;;;;;;;;;27.25;24.75;;;;;;;;5080732;28;46864;-78
2021/08/24 08:00:25;;;;;;;;;24.00;21.00;;;;;;;;5062757;28;46918;-78
2021/08/24 08:02:51;;;;;;;;;25.25;23.50;;;;;;;;5080695;28;47801;-77
2021/08/24 08:05:17;;;;;;;;;23.25;19.50;;;;;;;;5080719;28;47093;-77
2021/08/24 08:07:42;;;;;;;;;16.00;15.75;;;;;;;;5080620;28;46991;-77
2021/08/24 08:10:08;;;;;;;;;19.00;18.25;;;;;;;;5080941;28;46873;-78
2021/08/24 08:12:33;;;;;;;;;22.50;21.00;;;;;;;;5080515;28;47402;-77
2021/08/24 08:14:59;;;;;;;;;16.75;15.25;;;;;;;;5080647;28;46964;-77
2021/08/24 08:17:24;;;;;;;;;18.50;18.50;;;;;;;;5080562;28;46963;-78
2021/08/24 08:19:49;;;;;;;;;20.25;18.00;;;;;;;;5080581;28;46857;-77
2021/08/24 08:22:15;;;;;;;;;16.00;16.00;;;;;;;;5080115;28;47773;-77
2021/08/24 08:24:40;;;;;;;;;19.75;18.25;;;;;;;;5062423;28;47054;-77
2021/08/24 08:27:05;;;;;;;;;18.25;16.00;;;;;;;;5080308;28;46916;-77
2021/08/24 08:29:31;;;;;;;;;24.50;18.00;;;;;;;;5080490;28;47015;-77
2021/08/24 08:32:00;;;;;;;;;14.75;14.50;;;;;;;;5080113;28;46899;-78
2021/08/24 08:34:26;;;;;;;;;15.25;15.00;;;;;;;;5061909;28;47277;-78
2021/08/24 08:36:52;;;;;;;;;17.75;14.75;;;;;;;;5080190;28;46890;-78
2021/08/24 08:39:18;;;;;;;;;15.75;14.00;;;;;;;;5080512;28;46964;-77
2021/08/24 08:42:01;;;;;;;;;14.00;12.75;;;;;;;;5080088;28;46962;-77
2021/08/24 08:44:38;;;;;;;;;15.75;13.75;;;;;;;;5080083;28;46967;-77
2021/08/24 08:47:06;;;;;;;;;14.25;14.25;;;;;;;;5079700;28;46917;-78
2021/08/24 08:49:32;;;;;;;;;17.00;13.25;;;;;;;;5080354;28;47228;-78
2021/08/24 08:52:16;;;;;;;;;13.75;12.50;;;;;;;;5061324;28;48556;-77
2021/08/24 08:54:47;;;;;;;;;12.75;10.50;;;;;;;;5061706;28;47114;-77
2021/08/24 08:57:14;;;;;;;;;19.50;15.25;;;;;;;;5080275;28;46966;-77
2021/08/24 08:59:39;;;;;;;;;14.75;12.00;;;;;;;;5080145;28;47079;-78
2021/08/24 09:02:22;;;;;;;;;10.00;10.00;;;;;;;;5061535;28;47209;-77
2021/08/24 09:04:48;;;;;;;;;12.50;10.00;;;;;;;;5079766;28;47125;-77
2021/08/24 09:07:18;;;;;;;;;10.75;9.50;;;;;;;;5061286;28;47014;-78
2021/08/24 09:09:44;;;;;;;;;10.75;9.25;;;;;;;;5080165;28;46800;-78
2021/08/24 09:12:10;;;;;;;;;11.00;10.50;;;;;;;;5079719;28;47095;-77
2021/08/24 09:14:40;;;;;;;;;7.50;7.50;;;;;;;;5079669;28;46932;-77
2021/08/24 09:17:10;;;;;;;;;11.75;10.25;;;;;;;;5079630;28;46907;-78
2021/08/24 09:19:51;;;;;;;;;9.75;7.00;;;;;;;;5080044;28;46953;-77
2021/08/24 09:22:17;;;;;;;;;9.25;5.75;;;;;;;;5079119;28;47788;-77
2021/08/24 09:24:42;;;;;;;;;7.75;7.25;;;;;;;;5079687;28;46947;-78
2021/08/24 09:27:27;;;;;;;;;12.50;9.50;;;;;;;;5066338;28;46872;-77
2021/08/24 09:29:52;;;;;;;;;8.25;7.75;;;;;;;;5079685;28;47240;-77
2021/08/24 09:32:20;;;;;;;;;7.00;7.00;;;;;;;;5079182;28;47517;-77
2021/08/24 09:34:49;;;;;;;;;13.75;7.00;;;;;;;;5079317;28;47247;-77
2021/08/24 09:37:19;;;;;;;;;10.25;7.75;;;;;;;;5078973;28;46982;-77
2021/08/24 09:40:00;;;;;;;;;11.25;7.00;;;;;;;;5079468;28;46739;-77
2021/08/24 09:42:34;;;;;;;;;7.25;7.00;;;;;;;;5079330;28;46912;-77
2021/08/24 09:45:01;;;;;;;;;6.00;6.00;;;;;;;;5079112;28;46983;-77
2021/08/24 09:47:27;;;;;;;;;8.25;5.75;;;;;;;;5079310;28;46892;-77
2021/08/24 09:49:58;;;;;;;;;7.50;6.00;;;;;;;;5079295;28;47240;-77
2021/08/24 09:52:25;;;;;;;;;6.75;6.50;;;;;;;;5078845;28;47143;-77
2021/08/24 09:54:52;;;;;;;;;8.50;5.25;;;;;;;;5079026;28;47121;-77
2021/08/24 09:57:18;;;;;;;;;7.00;6.00;;;;;;;;5079065;28;46798;-77
2021/08/24 10:00:00;;;;;;;;;9.00;7.00;;;;;;;;5078221;28;46903;-77
2021/08/24 10:02:28;;;;;;;;;6.25;5.00;;;;;;;;5078816;28;46992;-78
2021/08/24 10:04:54;;;;;;;;;6.75;5.50;;;;;;;;5079006;28;46782;-77
2021/08/24 10:07:34;;;;;;;;;5.50;4.00;;;;;;;;5060416;28;46940;-77
2021/08/24 10:09:59;;;;;;;;;5.50;4.50;;;;;;;;5079123;28;46936;-78
2021/08/24 10:12:29;;;;;;;;;4.75;4.50;;;;;;;;5078693;28;46967;-78
2021/08/24 10:14:56;;;;;;;;;8.25;5.00;;;;;;;;5078758;28;46773;-78
2021/08/24 10:17:24;;;;;;;;;7.50;5.50;;;;;;;;5078823;28;46968;-78
2021/08/24 10:19:50;;;;;;;;;5.75;5.00;;;;;;;;5078938;28;47360;-78
2021/08/24 10:22:23;;;;;;;;;7.25;6.00;;;;;;;;5078299;28;47866;-78
2021/08/24 10:24:56;;;;;;;;;6.25;6.25;;;;;;;;5078802;28;47030;-78
2021/08/24 10:27:24;;;;;;;;;6.50;4.00;;;;;;;;5078558;28;46915;-78
2021/08/24 10:29:51;;;;;;;;;4.00;4.00;;;;;;;;5078940;28;46948;-78
2021/08/24 10:32:23;;;;;;;;;6.50;4.50;;;;;;;;5060039;28;47201;-78
2021/08/24 10:34:49;;;;;;;;;4.75;4.75;;;;;;;;5060232;28;47039;-78
2021/08/24 10:37:23;;;;;;;;;4.25;4.00;;;;;;;;5078319;28;47559;-78
2021/08/24 10:39:49;;;;;;;;;5.00;4.00;;;;;;;;5078837;28;47009;-78
2021/08/24 10:42:23;;;;;;;;;5.50;3.00;;;;;;;;5078417;28;47722;-78
2021/08/24 10:44:50;;;;;;;;;5.00;4.00;;;;;;;;5078336;28;47057;-78
2021/08/24 10:47:43;;;;;;;;;5.25;3.25;;;;;;;;5078815;28;46971;-78
2021/08/24 10:50:29;;;;;;;;;6.75;4.75;;;;;;;;5078443;28;46916;-78
2021/08/24 10:53:09;;;;;;;;;3.00;3.00;;;;;;;;5028156;28;47657;-78
2021/08/24 10:55:38;;;;;;;;;4.75;4.00;;;;;;;;5060035;28;47105;-78
2021/08/24 10:58:13;;;;;;;;;5.00;5.00;;;;;;;;5077988;28;46949;-78
2021/08/24 11:00:59;;;;;;;;;4.25;3.75;;;;;;;;5060255;28;47337;-78
2021/08/24 11:03:24;;;;;;;;;5.50;3.75;;;;;;;;5078312;28;47243;-78
2021/08/24 11:05:55;;;;;;;;;4.00;3.00;;;;;;;;5078101;28;46861;-78
2021/08/24 11:08:26;;;;;;;;;3.00;3.00;;;;;;;;5059769;28;47061;-78
2021/08/24 11:11:01;;;;;;;;;3.25;3.25;;;;;;;;5079832;28;47404;-78
2021/08/24 11:13:52;;;;;;;;;3.00;3.00;;;;;;;;5081487;28;47944;-77
2021/08/24 11:16:33;;;;;;;;;3.00;3.00;;;;;;;;5081604;28;47231;-78
2021/08/24 11:19:12;;;;;;;;;4.75;4.75;;;;;;;;5081614;28;46903;-78
2021/08/24 11:21:43;;;;;;;;;4.00;4.00;;;;;;;;5081379;28;46905;-78
2021/08/24 11:24:26;;;;;;;;;4.75;3.75;;;;;;;;5081307;28;47252;-78
2021/08/24 11:26:54;;;;;;;;;5.00;3.75;;;;;;;;5068671;28;46820;-78
2021/08/24 11:29:19;;;;;;;;;3.50;2.50;;;;;;;;5081488;28;46954;-78
2021/08/24 11:31:52;;;;;;;;;3.00;3.00;;;;;;;;5081379;28;46832;-78
2021/08/24 11:34:29;;;;;;;;;3.25;3.00;;;;;;;;5081207;28;47017;-78
2021/08/24 11:37:04;;;;;;;;;4.00;3.00;;;;;;;;5080903;28;47268;-78
2021/08/24 11:39:35;;;;;;;;;3.00;3.00;;;;;;;;5081382;28;46894;-78
2021/08/24 11:42:02;;;;;;;;;3.00;3.00;;;;;;;;5081362;28;46909;-78
2021/08/24 11:44:42;;;;;;;;;3.00;3.00;;;;;;;;5081117;28;47057;-78
2021/08/24 11:47:10;;;;;;;;;5.75;4.00;;;;;;;;5081128;28;47037;-78
2021/08/24 11:49:44;;;;;;;;;3.00;2.75;;;;;;;;5081399;28;46890;-78
2021/08/24 11:52:28;;;;;;;;;3.50;3.00;;;;;;;;5080941;28;46982;-78
2021/08/24 11:55:04;;;;;;;;;3.50;3.25;;;;;;;;5080923;28;48148;-78
2021/08/24 11:57:40;;;;;;;;;3.00;3.00;;;;;;;;5080964;28;47105;-78
2021/08/24 12:00:06;;;;;;;;;2.50;2.00;;;;;;;;5081012;28;46871;-77
2021/08/24 12:02:36;;;;;;;;;4.50;2.00;;;;;;;;5081098;27;47049;-77
2021/08/24 12:05:03;;;;;;;;;2.00;2.00;;;;;;;;5081050;28;46978;-77
2021/08/24 12:07:33;;;;;;;;;3.25;2.50;;;;;;;;5080500;28;47504;-78
2021/08/24 12:09:59;;;;;;;;;3.75;3.00;;;;;;;;5081001;28;46848;-78
2021/08/24 12:12:30;;;;;;;;;3.00;2.00;;;;;;;;5080741;28;46951;-78
2021/08/24 12:14:58;;;;;;;;;2.00;2.00;;;;;;;;5080605;28;47972;-78
2021/08/24 12:17:29;;;;;;;;;2.25;2.25;;;;;;;;5080686;28;46863;-78
2021/08/24 12:19:56;;;;;;;;;7.00;4.00;;;;;;;;5062402;28;46966;-78
2021/08/24 12:22:31;;;;;;;;;2.25;2.25;;;;;;;;5079767;28;46938;-78
2021/08/24 12:24:58;;;;;;;;;3.00;3.00;;;;;;;;5080602;28;46865;-78
2021/08/24 12:27:26;;;;;;;;;4.75;4.00;;;;;;;;5067172;28;47149;-78
2021/08/24 12:30:04;;;;;;;;;3.50;2.00;;;;;;;;5080924;28;47017;-78
2021/08/24 12:32:30;;;;;;;;;3.00;3.00;;;;;;;;5080750;28;46976;-78
2021/08/24 12:35:15;;;;;;;;;4.75;2.75;;;;;;;;5080286;28;47772;-78
2021/08/24 12:37:41;;;;;;;;;4.25;3.25;;;;;;;;5061201;28;47860;-78
2021/08/24 12:40:09;;;;;;;;;3.00;3.00;;;;;;;;5061900;28;47046;-79
2021/08/24 12:42:54;;;;;;;;;3.75;2.00;;;;;;;;5080600;28;47066;-78
2021/08/24 12:45:25;;;;;;;;;2.00;1.00;;;;;;;;5038262;28;47984;-78
2021/08/24 12:48:09;;;;;;;;;3.00;2.00;;;;;;;;5080140;28;46829;-78
2021/08/24 12:50:34;;;;;;;;;2.00;2.00;;;;;;;;5080189;28;47002;-79
2021/08/24 12:53:32;;;;;;;;;3.00;2.00;;;;;;;;5061852;28;46988;-78
2021/08/24 12:55:59;;;;;;;;;4.25;3.00;;;;;;;;5026515;28;47124;-79
2021/08/24 12:58:29;;;;;;;;;2.00;2.00;;;;;;;;5079990;28;46859;-79
2021/08/24 13:01:09;;;;;;;;;1.25;1.00;;;;;;;;5080250;28;46978;-78
2021/08/24 13:03:36;;;;;;;;;4.75;2.00;;;;;;;;5080084;28;46858;-78
2021/08/24 13:06:21;;;;;;;;;3.00;2.00;;;;;;;;5061239;28;46968;-78
2021/08/24 13:08:48;;;;;;;;;2.25;2.00;;;;;;;;5079964;28;47088;-78
2021/08/24 13:11:30;;;;;;;;;1.75;1.50;;;;;;;;5079677;28;46813;-78
2021/08/24 13:14:02;;;;;;;;;2.00;2.00;;;;;;;;5079949;28;47046;-78
2021/08/24 13:16:32;;;;;;;;;2.00;2.00;;;;;;;;5079567;28;46834;-78
2021/08/24 13:18:58;;;;;;;;;3.00;1.50;;;;;;;;5079617;28;47042;-78
2021/08/24 13:21:26;;;;;;;;;2.75;1.75;;;;;;;;5079571;28;46927;-78
2021/08/24 13:24:14;;;;;;;;;3.50;2.00;;;;;;;;5079843;28;47355;-78
2021/08/24 13:27:01;;;;;;;;;2.00;1.50;;;;;;;;5056255;27;47748;-78
2021/08/24 13:29:28;;;;;;;;;0.25;0.25;;;;;;;;5068220;28;47112;-78
2021/08/24 13:31:56;;;;;;;;;4.00;2.25;;;;;;;;5079508;28;46910;-78
2021/08/24 13:34:40;;;;;;;;;3.00;3.00;;;;;;;;5078333;28;47141;-78
2021/08/24 13:37:06;;;;;;;;;2.25;2.25;;;;;;;;5079267;28;46970;-78
2021/08/24 13:39:31;;;;;;;;;1.75;1.75;;;;;;;;5079619;28;46948;-78
2021/08/24 13:42:01;;;;;;;;;2.00;2.00;;;;;;;;5079332;28;46796;-78
2021/08/24 13:44:29;;;;;;;;;2.25;2.25;;;;;;;;5079534;28;46897;-78
2021/08/24 13:47:01;;;;;;;;;3.50;2.50;;;;;;;;5079232;28;47065;-78
2021/08/24 13:49:26;;;;;;;;;3.75;2.75;;;;;;;;5079298;28;47010;-78
2021/08/24 13:51:52;;;;;;;;;4.00;4.00;;;;;;;;5078923;28;46920;-78
2021/08/24 13:54:43;;;;;;;;;3.00;2.00;;;;;;;;5079482;28;46821;-78
2021/08/24 13:57:13;;;;;;;;;3.25;2.25;;;;;;;;5059440;28;47866;-78
2021/08/24 13:59:52;;;;;;;;;4.50;3.25;;;;;;;;5079145;28;47120;-78
2021/08/24 14:02:18;;;;;;;;;2.75;2.25;;;;;;;;5079159;28;46801;-78
2021/08/24 14:04:45;;;;;;;;;3.25;3.25;;;;;;;;5079102;28;46816;-78
2021/08/24 14:07:26;;;;;;;;;3.00;2.25;;;;;;;;5078731;28;46980;-78
2021/08/24 14:10:02;;;;;;;;;4.50;3.00;;;;;;;;5079078;28;46955;-78
2021/08/24 14:12:27;;;;;;;;;3.50;2.50;;;;;;;;5078866;28;47487;-78
2021/08/24 14:14:53;;;;;;;;;5.00;4.00;;;;;;;;5079009;28;47110;-78
2021/08/24 14:17:23;;;;;;;;;3.00;2.00;;;;;;;;5078914;28;46999;-78
2021/08/24 14:19:49;;;;;;;;;2.75;2.75;;;;;;;;5078724;28;47454;-78
2021/08/24 14:22:15;;;;;;;;;5.00;3.00;;;;;;;;5078502;28;47506;-78
2021/08/24 14:24:41;;;;;;;;;3.00;2.50;;;;;;;;5079102;28;47258;-78
2021/08/24 14:27:08;;;;;;;;;2.50;2.50;;;;;;;;5066338;28;46905;-78
2021/08/24 14:29:36;;;;;;;;;2.00;2.00;;;;;;;;5078564;28;46811;-78
2021/08/24 14:32:05;;;;;;;;;4.75;4.00;;;;;;;;5078803;28;46923;-78
2021/08/24 14:34:30;;;;;;;;;0.75;0.75;;;;;;;;5078683;28;47121;-78
2021/08/24 14:37:34;;;;;;;;;4.00;3.25;;;;;;;;5078179;28;47756;-79